sensor_id;sensor_type;location;lat;lon;timestamp;temperature;humidity
38941;DHT22;43236;47.208;7.518;2023-02-13T00:01:27;4.40;93.90
38941;DHT22;43236;47.208;7.518;2023-02-13T00:04:15;4.40;93.80
38941;DHT22;43236;47.208;7.518;2023-02-13T00:07:02;4.50;93.80
38941;DHT22;43236;47.208;7.518;2023-02-13T00:09:49;4.50;93.80
38941;DHT22;43236;47.208;7.518;2023-02-13T00:12:36;4.60;94.20
38941;DHT22;43236;47.208;7.518;2023-02-13T00:15:24;4.60;93.90
38941;DHT22;43236;47.208;7.518;2023-02-13T00:18:11;4.70;94.10
38941;DHT22;43236;47.208;7.518;2023-02-13T00:21:04;4.70;94.20
38941;DHT22;43236;47.208;7.518;2023-02-13T00:23:51;4.70;94.30
38941;DHT22;43236;47.208;7.518;2023-02-13T00:26:39;4.80;94.30
38941;DHT22;43236;47.208;7.518;2023-02-13T00:29:26;4.80;94.40
38941;DHT22;43236;47.208;7.518;2023-02-13T00:32:13;4.80;94.50
38941;DHT22;43236;47.208;7.518;2023-02-13T00:35:00;4.90;94.50
38941;DHT22;43236;47.208;7.518;2023-02-13T00:37:49;4.90;94.60
38941;DHT22;43236;47.208;7.518;2023-02-13T00:40:36;5.00;94.50
38941;DHT22;43236;47.208;7.518;2023-02-13T00:43:23;5.00;94.50
38941;DHT22;43236;47.208;7.518;2023-02-13T00:46:10;5.10;94.50
38941;DHT22;43236;47.208;7.518;2023-02-13T00:48:57;5.00;94.60
38941;DHT22;43236;47.208;7.518;2023-02-13T00:51:44;5.00;94.80
38941;DHT22;43236;47.208;7.518;2023-02-13T00:54:33;5.10;94.90
38941;DHT22;43236;47.208;7.518;2023-02-13T00:57:20;5.10;94.80
38941;DHT22;43236;47.208;7.518;2023-02-13T01:00:07;5.10;94.90
38941;DHT22;43236;47.208;7.518;2023-02-13T01:02:55;5.20;94.70
38941;DHT22;43236;47.208;7.518;2023-02-13T01:05:42;5.20;94.70
38941;DHT22;43236;47.208;7.518;2023-02-13T01:08:29;5.20;94.60
38941;DHT22;43236;47.208;7.518;2023-02-13T01:11:18;5.20;94.50
38941;DHT22;43236;47.208;7.518;2023-02-13T01:14:05;5.30;94.50
38941;DHT22;43236;47.208;7.518;2023-02-13T01:16:52;5.30;94.40
38941;DHT22;43236;47.208;7.518;2023-02-13T01:19:39;5.40;94.40
38941;DHT22;43236;47.208;7.518;2023-02-13T01:22:26;5.40;94.30
38941;DHT22;43236;47.208;7.518;2023-02-13T01:25:13;5.40;94.50
38941;DHT22;43236;47.208;7.518;2023-02-13T01:28:02;5.40;94.50
38941;DHT22;43236;47.208;7.518;2023-02-13T01:30:52;5.40;94.70
38941;DHT22;43236;47.208;7.518;2023-02-13T01:33:39;5.50;94.60
38941;DHT22;43236;47.208;7.518;2023-02-13T01:36:26;5.50;94.50
38941;DHT22;43236;47.208;7.518;2023-02-13T01:39:13;5.50;94.60
38941;DHT22;43236;47.208;7.518;2023-02-13T01:42:00;5.50;94.50
38941;DHT22;43236;47.208;7.518;2023-02-13T01:44:50;5.50;94.40
38941;DHT22;43236;47.208;7.518;2023-02-13T01:47:40;5.60;94.40
38941;DHT22;43236;47.208;7.518;2023-02-13T01:50:31;5.60;94.30
38941;DHT22;43236;47.208;7.518;2023-02-13T01:53:23;5.60;94.30
38941;DHT22;43236;47.208;7.518;2023-02-13T01:56:14;5.60;94.30
38941;DHT22;43236;47.208;7.518;2023-02-13T01:59:07;5.60;94.40
38941;DHT22;43236;47.208;7.518;2023-02-13T02:01:57;5.60;94.40
38941;DHT22;43236;47.208;7.518;2023-02-13T02:04:46;5.60;94.80
38941;DHT22;43236;47.208;7.518;2023-02-13T02:07:35;5.70;94.50
38941;DHT22;43236;47.208;7.518;2023-02-13T02:10:23;5.70;94.40
38941;DHT22;43236;47.208;7.518;2023-02-13T02:13:13;5.70;94.40
38941;DHT22;43236;47.208;7.518;2023-02-13T02:16:01;5.70;94.40
38941;DHT22;43236;47.208;7.518;2023-02-13T02:18:49;5.70;94.30
38941;DHT22;43236;47.208;7.518;2023-02-13T02:21:59;5.80;94.30
38941;DHT22;43236;47.208;7.518;2023-02-13T02:25:17;5.80;94.20
38941;DHT22;43236;47.208;7.518;2023-02-13T02:28:35;5.80;94.20
38941;DHT22;43236;47.208;7.518;2023-02-13T02:32:07;5.80;94.10
38941;DHT22;43236;47.208;7.518;2023-02-13T02:35:08;5.80;94.20
38941;DHT22;43236;47.208;7.518;2023-02-13T02:38:07;5.80;94.00
38941;DHT22;43236;47.208;7.518;2023-02-13T02:41:03;5.80;94.10
38941;DHT22;43236;47.208;7.518;2023-02-13T02:43:57;5.80;94.00
38941;DHT22;43236;47.208;7.518;2023-02-13T02:46:57;5.80;94.10
38941;DHT22;43236;47.208;7.518;2023-02-13T02:50:15;5.90;94.00
38941;DHT22;43236;47.208;7.518;2023-02-13T02:53:16;5.90;94.00
38941;DHT22;43236;47.208;7.518;2023-02-13T02:56:09;5.90;93.90
38941;DHT22;43236;47.208;7.518;2023-02-13T02:59:02;5.90;93.90
38941;DHT22;43236;47.208;7.518;2023-02-13T03:02:11;5.90;93.80
38941;DHT22;43236;47.208;7.518;2023-02-13T03:05:20;5.90;93.60
38941;DHT22;43236;47.208;7.518;2023-02-13T03:08:28;5.80;93.40
38941;DHT22;43236;47.208;7.518;2023-02-13T03:11:29;5.90;93.50
38941;DHT22;43236;47.208;7.518;2023-02-13T03:14:34;5.90;93.60
38941;DHT22;43236;47.208;7.518;2023-02-13T03:17:23;5.80;93.50
38941;DHT22;43236;47.208;7.518;2023-02-13T03:20:33;5.90;93.50
38941;DHT22;43236;47.208;7.518;2023-02-13T03:23:46;5.80;93.40
38941;DHT22;43236;47.208;7.518;2023-02-13T03:26:40;5.90;93.50
38941;DHT22;43236;47.208;7.518;2023-02-13T03:29:43;5.90;93.50
38941;DHT22;43236;47.208;7.518;2023-02-13T03:32:58;5.90;93.40
38941;DHT22;43236;47.208;7.518;2023-02-13T03:35:51;5.90;93.40
38941;DHT22;43236;47.208;7.518;2023-02-13T03:39:01;5.90;93.40
38941;DHT22;43236;47.208;7.518;2023-02-13T03:41:53;5.90;93.40
38941;DHT22;43236;47.208;7.518;2023-02-13T03:44:45;5.90;93.40
38941;DHT22;43236;47.208;7.518;2023-02-13T03:47:57;5.90;93.50
38941;DHT22;43236;47.208;7.518;2023-02-13T03:50:44;5.90;93.40
38941;DHT22;43236;47.208;7.518;2023-02-13T03:53:33;5.90;93.20
38941;DHT22;43236;47.208;7.518;2023-02-13T03:56:22;6.00;93.30
38941;DHT22;43236;47.208;7.518;2023-02-13T03:59:30;6.00;93.40
38941;DHT22;43236;47.208;7.518;2023-02-13T04:02:23;6.00;93.20
38941;DHT22;43236;47.208;7.518;2023-02-13T04:05:14;6.00;93.30
38941;DHT22;43236;47.208;7.518;2023-02-13T04:08:02;6.00;93.30
38941;DHT22;43236;47.208;7.518;2023-02-13T04:10:52;5.90;93.30
38941;DHT22;43236;47.208;7.518;2023-02-13T04:13:44;6.00;93.30
38941;DHT22;43236;47.208;7.518;2023-02-13T04:16:38;5.90;93.20
38941;DHT22;43236;47.208;7.518;2023-02-13T04:19:27;5.90;93.10
38941;DHT22;43236;47.208;7.518;2023-02-13T04:22:15;5.90;93.10
38941;DHT22;43236;47.208;7.518;2023-02-13T04:25:02;5.90;93.00
38941;DHT22;43236;47.208;7.518;2023-02-13T04:27:50;5.90;93.00
38941;DHT22;43236;47.208;7.518;2023-02-13T04:30:37;5.90;92.90
38941;DHT22;43236;47.208;7.518;2023-02-13T04:33:24;5.90;93.00
38941;DHT22;43236;47.208;7.518;2023-02-13T04:36:11;5.90;93.00
38941;DHT22;43236;47.208;7.518;2023-02-13T04:38:59;5.90;92.90
38941;DHT22;43236;47.208;7.518;2023-02-13T04:41:46;5.90;92.90
38941;DHT22;43236;47.208;7.518;2023-02-13T04:44:33;5.90;92.80
38941;DHT22;43236;47.208;7.518;2023-02-13T04:47:20;5.90;92.80
38941;DHT22;43236;47.208;7.518;2023-02-13T04:50:08;5.90;92.90
38941;DHT22;43236;47.208;7.518;2023-02-13T04:52:56;5.90;93.00
38941;DHT22;43236;47.208;7.518;2023-02-13T04:55:45;5.90;92.80
38941;DHT22;43236;47.208;7.518;2023-02-13T04:58:32;5.90;92.80
38941;DHT22;43236;47.208;7.518;2023-02-13T05:01:19;5.90;92.90
38941;DHT22;43236;47.208;7.518;2023-02-13T05:04:06;5.90;92.80
38941;DHT22;43236;47.208;7.518;2023-02-13T05:06:53;5.90;92.80
38941;DHT22;43236;47.208;7.518;2023-02-13T05:09:40;5.90;92.80
38941;DHT22;43236;47.208;7.518;2023-02-13T05:12:28;5.90;92.90
38941;DHT22;43236;47.208;7.518;2023-02-13T05:15:15;5.90;92.80
38941;DHT22;43236;47.208;7.518;2023-02-13T05:18:03;5.90;92.90
38941;DHT22;43236;47.208;7.518;2023-02-13T05:20:50;5.90;93.30
38941;DHT22;43236;47.208;7.518;2023-02-13T05:23:51;5.90;92.80
38941;DHT22;43236;47.208;7.518;2023-02-13T05:26:38;5.90;92.70
38941;DHT22;43236;47.208;7.518;2023-02-13T05:29:26;5.90;92.80
38941;DHT22;43236;47.208;7.518;2023-02-13T05:32:13;5.90;92.80
38941;DHT22;43236;47.208;7.518;2023-02-13T05:35:00;5.90;92.60
38941;DHT22;43236;47.208;7.518;2023-02-13T05:37:47;5.90;92.60
38941;DHT22;43236;47.208;7.518;2023-02-13T05:40:34;5.90;92.50
38941;DHT22;43236;47.208;7.518;2023-02-13T05:43:21;5.90;92.50
38941;DHT22;43236;47.208;7.518;2023-02-13T05:46:10;5.90;92.50
38941;DHT22;43236;47.208;7.518;2023-02-13T05:48:57;5.90;92.50
38941;DHT22;43236;47.208;7.518;2023-02-13T05:51:44;5.90;92.60
38941;DHT22;43236;47.208;7.518;2023-02-13T05:54:32;5.90;92.60
38941;DHT22;43236;47.208;7.518;2023-02-13T05:57:19;5.90;92.60
38941;DHT22;43236;47.208;7.518;2023-02-13T06:00:07;5.90;92.80
38941;DHT22;43236;47.208;7.518;2023-02-13T06:02:55;5.90;92.60
38941;DHT22;43236;47.208;7.518;2023-02-13T06:05:42;5.90;92.60
38941;DHT22;43236;47.208;7.518;2023-02-13T06:08:30;5.90;92.70
38941;DHT22;43236;47.208;7.518;2023-02-13T06:11:17;5.90;92.70
38941;DHT22;43236;47.208;7.518;2023-02-13T06:14:04;5.90;92.80
38941;DHT22;43236;47.208;7.518;2023-02-13T06:16:51;5.90;92.70
38941;DHT22;43236;47.208;7.518;2023-02-13T06:19:39;6.00;92.80
38941;DHT22;43236;47.208;7.518;2023-02-13T06:22:26;6.00;92.80
38941;DHT22;43236;47.208;7.518;2023-02-13T06:25:13;6.00;92.90
38941;DHT22;43236;47.208;7.518;2023-02-13T06:28:01;6.00;92.90
38941;DHT22;43236;47.208;7.518;2023-02-13T06:30:48;6.00;93.00
38941;DHT22;43236;47.208;7.518;2023-02-13T06:33:35;6.00;92.90
38941;DHT22;43236;47.208;7.518;2023-02-13T06:36:23;6.00;92.90
38941;DHT22;43236;47.208;7.518;2023-02-13T06:39:10;6.00;93.00
38941;DHT22;43236;47.208;7.518;2023-02-13T06:41:57;6.00;93.10
38941;DHT22;43236;47.208;7.518;2023-02-13T06:44:44;6.00;93.00
38941;DHT22;43236;47.208;7.518;2023-02-13T06:47:31;6.00;93.10
38941;DHT22;43236;47.208;7.518;2023-02-13T06:50:18;6.00;93.20
38941;DHT22;43236;47.208;7.518;2023-02-13T06:53:07;6.00;93.20
38941;DHT22;43236;47.208;7.518;2023-02-13T06:55:55;6.00;93.30
38941;DHT22;43236;47.208;7.518;2023-02-13T06:58:42;6.00;93.30
38941;DHT22;43236;47.208;7.518;2023-02-13T07:01:30;6.00;93.40
38941;DHT22;43236;47.208;7.518;2023-02-13T07:04:17;6.00;93.20
38941;DHT22;43236;47.208;7.518;2023-02-13T07:07:04;6.10;93.30
38941;DHT22;43236;47.208;7.518;2023-02-13T07:09:53;6.10;93.30
38941;DHT22;43236;47.208;7.518;2023-02-13T07:12:40;6.10;93.30
38941;DHT22;43236;47.208;7.518;2023-02-13T07:15:27;6.10;93.90
38941;DHT22;43236;47.208;7.518;2023-02-13T07:18:14;6.10;93.10
38941;DHT22;43236;47.208;7.518;2023-02-13T07:21:01;6.10;93.10
38941;DHT22;43236;47.208;7.518;2023-02-13T07:23:48;6.10;93.00
38941;DHT22;43236;47.208;7.518;2023-02-13T07:26:36;6.10;93.20
38941;DHT22;43236;47.208;7.518;2023-02-13T07:29:23;6.20;93.20
38941;DHT22;43236;47.208;7.518;2023-02-13T07:32:10;6.20;93.30
38941;DHT22;43236;47.208;7.518;2023-02-13T07:34:57;6.20;93.10
38941;DHT22;43236;47.208;7.518;2023-02-13T07:37:44;6.20;92.90
38941;DHT22;43236;47.208;7.518;2023-02-13T07:40:31;6.20;93.00
38941;DHT22;43236;47.208;7.518;2023-02-13T07:43:19;6.20;92.90
38941;DHT22;43236;47.208;7.518;2023-02-13T07:46:07;6.20;92.90
38941;DHT22;43236;47.208;7.518;2023-02-13T07:48:54;6.20;92.90
38941;DHT22;43236;47.208;7.518;2023-02-13T07:51:42;6.30;93.10
38941;DHT22;43236;47.208;7.518;2023-02-13T07:54:29;6.30;92.80
38941;DHT22;43236;47.208;7.518;2023-02-13T07:57:16;6.30;93.00
38941;DHT22;43236;47.208;7.518;2023-02-13T08:00:06;6.40;92.90
38941;DHT22;43236;47.208;7.518;2023-02-13T08:02:53;6.30;93.00
38941;DHT22;43236;47.208;7.518;2023-02-13T08:05:41;6.30;92.80
38941;DHT22;43236;47.208;7.518;2023-02-13T08:08:28;6.40;93.00
38941;DHT22;43236;47.208;7.518;2023-02-13T08:11:23;6.40;93.00
38941;DHT22;43236;47.208;7.518;2023-02-13T08:14:27;6.40;93.10
38941;DHT22;43236;47.208;7.518;2023-02-13T08:17:16;6.50;93.10
38941;DHT22;43236;47.208;7.518;2023-02-13T08:20:04;6.50;93.20
38941;DHT22;43236;47.208;7.518;2023-02-13T08:22:52;6.50;93.20
38941;DHT22;43236;47.208;7.518;2023-02-13T08:25:39;6.60;93.30
38941;DHT22;43236;47.208;7.518;2023-02-13T08:28:27;6.60;93.10
38941;DHT22;43236;47.208;7.518;2023-02-13T08:31:14;6.60;93.30
38941;DHT22;43236;47.208;7.518;2023-02-13T08:34:03;6.60;93.40
38941;DHT22;43236;47.208;7.518;2023-02-13T08:36:50;6.70;93.40
38941;DHT22;43236;47.208;7.518;2023-02-13T08:39:37;6.70;93.20
38941;DHT22;43236;47.208;7.518;2023-02-13T08:42:24;6.70;93.50
38941;DHT22;43236;47.208;7.518;2023-02-13T08:45:11;6.70;93.30
38941;DHT22;43236;47.208;7.518;2023-02-13T08:47:58;6.80;93.40
38941;DHT22;43236;47.208;7.518;2023-02-13T08:50:47;6.80;93.40
38941;DHT22;43236;47.208;7.518;2023-02-13T08:53:35;6.80;93.60
38941;DHT22;43236;47.208;7.518;2023-02-13T08:56:22;6.80;93.60
38941;DHT22;43236;47.208;7.518;2023-02-13T08:59:09;6.90;93.80
38941;DHT22;43236;47.208;7.518;2023-02-13T09:01:56;6.90;94.10
38941;DHT22;43236;47.208;7.518;2023-02-13T09:04:43;6.90;94.50
38941;DHT22;43236;47.208;7.518;2023-02-13T09:07:31;7.00;94.60
38941;DHT22;43236;47.208;7.518;2023-02-13T09:10:19;7.00;94.40
38941;DHT22;43236;47.208;7.518;2023-02-13T09:13:06;7.10;94.50
38941;DHT22;43236;47.208;7.518;2023-02-13T09:15:53;7.10;94.60
38941;DHT22;43236;47.208;7.518;2023-02-13T09:18:40;7.20;94.40
38941;DHT22;43236;47.208;7.518;2023-02-13T09:21:27;7.20;94.70
38941;DHT22;43236;47.208;7.518;2023-02-13T09:24:17;7.20;95.00
38941;DHT22;43236;47.208;7.518;2023-02-13T09:27:04;7.20;95.30
38941;DHT22;43236;47.208;7.518;2023-02-13T09:29:52;7.20;95.30
38941;DHT22;43236;47.208;7.518;2023-02-13T09:32:40;7.10;95.40
38941;DHT22;43236;47.208;7.518;2023-02-13T09:35:27;7.10;95.50
38941;DHT22;43236;47.208;7.518;2023-02-13T09:38:14;7.10;95.50
38941;DHT22;43236;47.208;7.518;2023-02-13T09:41:05;7.20;95.50
38941;DHT22;43236;47.208;7.518;2023-02-13T09:43:56;7.20;95.60
38941;DHT22;43236;47.208;7.518;2023-02-13T09:46:45;7.30;95.50
38941;DHT22;43236;47.208;7.518;2023-02-13T09:49:36;7.30;95.70
38941;DHT22;43236;47.208;7.518;2023-02-13T09:52:25;7.30;95.60
38941;DHT22;43236;47.208;7.518;2023-02-13T09:55:15;7.30;95.70
38941;DHT22;43236;47.208;7.518;2023-02-13T09:58:08;7.30;95.80
38941;DHT22;43236;47.208;7.518;2023-02-13T10:01:02;7.20;95.80
38941;DHT22;43236;47.208;7.518;2023-02-13T10:04:07;7.30;96.00
38941;DHT22;43236;47.208;7.518;2023-02-13T10:07:09;7.30;95.80
38941;DHT22;43236;47.208;7.518;2023-02-13T10:10:02;7.30;96.00
38941;DHT22;43236;47.208;7.518;2023-02-13T10:12:56;7.40;95.90
38941;DHT22;43236;47.208;7.518;2023-02-13T10:15:52;7.30;95.80
38941;DHT22;43236;47.208;7.518;2023-02-13T10:18:45;7.40;95.80
38941;DHT22;43236;47.208;7.518;2023-02-13T10:21:38;7.40;95.70
38941;DHT22;43236;47.208;7.518;2023-02-13T10:24:31;7.40;95.80
38941;DHT22;43236;47.208;7.518;2023-02-13T10:27:22;7.40;95.70
38941;DHT22;43236;47.208;7.518;2023-02-13T10:30:15;7.40;95.90
38941;DHT22;43236;47.208;7.518;2023-02-13T10:33:10;7.40;95.80
38941;DHT22;43236;47.208;7.518;2023-02-13T10:36:12;7.40;95.70
38941;DHT22;43236;47.208;7.518;2023-02-13T10:39:09;7.20;95.90
38941;DHT22;43236;47.208;7.518;2023-02-13T10:42:04;7.20;96.00
38941;DHT22;43236;47.208;7.518;2023-02-13T10:45:02;7.30;96.20
38941;DHT22;43236;47.208;7.518;2023-02-13T10:48:09;7.50;97.50
38941;DHT22;43236;47.208;7.518;2023-02-13T10:51:00;7.70;96.70
38941;DHT22;43236;47.208;7.518;2023-02-13T10:53:58;7.70;95.70
38941;DHT22;43236;47.208;7.518;2023-02-13T10:56:57;7.70;95.70
38941;DHT22;43236;47.208;7.518;2023-02-13T10:59:57;7.50;95.60
38941;DHT22;43236;47.208;7.518;2023-02-13T11:02:49;7.50;95.70
38941;DHT22;43236;47.208;7.518;2023-02-13T11:05:39;7.40;96.00
38941;DHT22;43236;47.208;7.518;2023-02-13T11:08:31;7.40;96.30
38941;DHT22;43236;47.208;7.518;2023-02-13T11:11:28;7.60;96.30
38941;DHT22;43236;47.208;7.518;2023-02-13T11:14:17;7.60;95.90
38941;DHT22;43236;47.208;7.518;2023-02-13T11:17:06;7.70;96.30
38941;DHT22;43236;47.208;7.518;2023-02-13T11:20:00;7.70;95.80
38941;DHT22;43236;47.208;7.518;2023-02-13T11:22:49;7.80;95.60
38941;DHT22;43236;47.208;7.518;2023-02-13T11:25:37;7.90;95.70
38941;DHT22;43236;47.208;7.518;2023-02-13T11:28:25;7.80;95.20
38941;DHT22;43236;47.208;7.518;2023-02-13T11:31:23;7.70;95.40
38941;DHT22;43236;47.208;7.518;2023-02-13T11:34:23;7.70;95.70
38941;DHT22;43236;47.208;7.518;2023-02-13T11:37:16;7.90;95.50
38941;DHT22;43236;47.208;7.518;2023-02-13T11:40:28;8.00;95.30
38941;DHT22;43236;47.208;7.518;2023-02-13T11:43:23;8.10;95.10
38941;DHT22;43236;47.208;7.518;2023-02-13T11:46:17;8.30;95.10
38941;DHT22;43236;47.208;7.518;2023-02-13T11:49:05;8.40;94.90
38941;DHT22;43236;47.208;7.518;2023-02-13T11:51:54;8.50;94.90
38941;DHT22;43236;47.208;7.518;2023-02-13T11:54:42;8.40;94.40
38941;DHT22;43236;47.208;7.518;2023-02-13T11:57:32;8.30;94.60
38941;DHT22;43236;47.208;7.518;2023-02-13T12:00:31;8.30;94.70
38941;DHT22;43236;47.208;7.518;2023-02-13T12:03:27;8.40;94.80
38941;DHT22;43236;47.208;7.518;2023-02-13T12:06:16;8.50;94.80
38941;DHT22;43236;47.208;7.518;2023-02-13T12:09:04;8.50;95.00
38941;DHT22;43236;47.208;7.518;2023-02-13T12:11:53;8.50;94.60
38941;DHT22;43236;47.208;7.518;2023-02-13T12:14:44;8.50;94.60
38941;DHT22;43236;47.208;7.518;2023-02-13T12:17:31;8.50;95.10
38941;DHT22;43236;47.208;7.518;2023-02-13T12:20:21;8.40;94.80
38941;DHT22;43236;47.208;7.518;2023-02-13T12:23:19;8.40;95.00
38941;DHT22;43236;47.208;7.518;2023-02-13T12:26:20;8.30;95.00
38941;DHT22;43236;47.208;7.518;2023-02-13T12:29:34;8.30;95.20
38941;DHT22;43236;47.208;7.518;2023-02-13T12:32:39;8.20;94.80
38941;DHT22;43236;47.208;7.518;2023-02-13T12:35:38;8.20;95.40
38941;DHT22;43236;47.208;7.518;2023-02-13T12:38:44;8.30;95.40
38941;DHT22;43236;47.208;7.518;2023-02-13T12:41:40;8.30;96.10
38941;DHT22;43236;47.208;7.518;2023-02-13T12:44:51;8.40;95.90
38941;DHT22;43236;47.208;7.518;2023-02-13T12:47:52;8.40;95.40
38941;DHT22;43236;47.208;7.518;2023-02-13T12:50:51;8.40;95.60
38941;DHT22;43236;47.208;7.518;2023-02-13T12:54:01;8.40;95.60
38941;DHT22;43236;47.208;7.518;2023-02-13T12:57:03;8.50;95.10
38941;DHT22;43236;47.208;7.518;2023-02-13T13:00:04;8.50;95.80
38941;DHT22;43236;47.208;7.518;2023-02-13T13:03:14;8.50;95.60
38941;DHT22;43236;47.208;7.518;2023-02-13T13:06:16;8.50;95.60
38941;DHT22;43236;47.208;7.518;2023-02-13T13:09:18;8.60;95.30
38941;DHT22;43236;47.208;7.518;2023-02-13T13:12:27;8.60;95.20
38941;DHT22;43236;47.208;7.518;2023-02-13T13:15:24;8.60;95.40
38941;DHT22;43236;47.208;7.518;2023-02-13T13:18:26;8.60;95.80
38941;DHT22;43236;47.208;7.518;2023-02-13T13:21:27;8.70;95.70
38941;DHT22;43236;47.208;7.518;2023-02-13T13:24:24;8.70;95.80
38941;DHT22;43236;47.208;7.518;2023-02-13T13:27:19;8.80;95.60
38941;DHT22;43236;47.208;7.518;2023-02-13T13:30:15;8.80;95.30
38941;DHT22;43236;47.208;7.518;2023-02-13T13:33:06;8.80;95.20
38941;DHT22;43236;47.208;7.518;2023-02-13T13:36:02;8.90;95.00
38941;DHT22;43236;47.208;7.518;2023-02-13T13:38:56;8.90;95.10
38941;DHT22;43236;47.208;7.518;2023-02-13T13:41:50;9.00;94.90
38941;DHT22;43236;47.208;7.518;2023-02-13T13:44:53;9.00;94.90
38941;DHT22;43236;47.208;7.518;2023-02-13T13:47:57;9.10;94.80
38941;DHT22;43236;47.208;7.518;2023-02-13T13:50:46;9.10;94.60
38941;DHT22;43236;47.208;7.518;2023-02-13T13:53:35;9.10;94.50
38941;DHT22;43236;47.208;7.518;2023-02-13T13:56:23;9.20;94.50
38941;DHT22;43236;47.208;7.518;2023-02-13T13:59:16;9.20;94.30
38941;DHT22;43236;47.208;7.518;2023-02-13T14:02:25;9.20;94.50
38941;DHT22;43236;47.208;7.518;2023-02-13T14:05:27;9.20;94.50
38941;DHT22;43236;47.208;7.518;2023-02-13T14:11:51;9.90;94.80
38941;DHT22;43236;47.208;7.518;2023-02-13T14:14:47;9.30;94.40
38941;DHT22;43236;47.208;7.518;2023-02-13T14:17:55;9.30;94.50
38941;DHT22;43236;47.208;7.518;2023-02-13T14:20:49;9.30;94.40
38941;DHT22;43236;47.208;7.518;2023-02-13T14:23:44;9.30;94.60
38941;DHT22;43236;47.208;7.518;2023-02-13T14:26:36;9.40;94.30
38941;DHT22;43236;47.208;7.518;2023-02-13T14:29:33;9.40;94.30
38941;DHT22;43236;47.208;7.518;2023-02-13T14:32:23;9.50;94.30
38941;DHT22;43236;47.208;7.518;2023-02-13T14:35:17;9.50;94.50
38941;DHT22;43236;47.208;7.518;2023-02-13T14:38:06;9.50;94.30
38941;DHT22;43236;47.208;7.518;2023-02-13T14:41:03;9.50;94.10
38941;DHT22;43236;47.208;7.518;2023-02-13T14:43:53;9.60;94.20
38941;DHT22;43236;47.208;7.518;2023-02-13T14:46:42;9.60;94.20
38941;DHT22;43236;47.208;7.518;2023-02-13T14:49:34;9.60;94.00
38941;DHT22;43236;47.208;7.518;2023-02-13T14:52:24;9.60;94.10
38941;DHT22;43236;47.208;7.518;2023-02-13T14:55:14;9.70;93.90
38941;DHT22;43236;47.208;7.518;2023-02-13T14:58:06;9.60;93.80
38941;DHT22;43236;47.208;7.518;2023-02-13T15:00:56;9.70;93.80
38941;DHT22;43236;47.208;7.518;2023-02-13T15:03:49;9.80;93.90
38941;DHT22;43236;47.208;7.518;2023-02-13T15:06:44;9.70;93.60
38941;DHT22;43236;47.208;7.518;2023-02-13T15:09:35;9.70;93.70
38941;DHT22;43236;47.208;7.518;2023-02-13T15:12:26;9.70;93.70
38941;DHT22;43236;47.208;7.518;2023-02-13T15:15:23;9.70;93.70
38941;DHT22;43236;47.208;7.518;2023-02-13T15:18:16;9.70;93.40
38941;DHT22;43236;47.208;7.518;2023-02-13T15:21:08;9.70;93.60
38941;DHT22;43236;47.208;7.518;2023-02-13T15:23:59;9.70;93.90
38941;DHT22;43236;47.208;7.518;2023-02-13T15:26:53;9.70;93.80
38941;DHT22;43236;47.208;7.518;2023-02-13T15:29:52;9.70;93.90
38941;DHT22;43236;47.208;7.518;2023-02-13T15:32:40;9.70;93.90
38941;DHT22;43236;47.208;7.518;2023-02-13T15:35:29;9.70;93.90
38941;DHT22;43236;47.208;7.518;2023-02-13T15:38:22;9.70;93.80
38941;DHT22;43236;47.208;7.518;2023-02-13T15:41:12;9.70;93.80
38941;DHT22;43236;47.208;7.518;2023-02-13T15:44:00;9.70;93.90
38941;DHT22;43236;47.208;7.518;2023-02-13T15:46:48;9.60;93.60
38941;DHT22;43236;47.208;7.518;2023-02-13T15:49:38;9.60;93.70
38941;DHT22;43236;47.208;7.518;2023-02-13T15:52:29;9.60;93.80
38941;DHT22;43236;47.208;7.518;2023-02-13T15:55:21;9.60;93.70
38941;DHT22;43236;47.208;7.518;2023-02-13T15:58:11;9.60;93.90
38941;DHT22;43236;47.208;7.518;2023-02-13T16:01:04;9.60;93.80
38941;DHT22;43236;47.208;7.518;2023-02-13T16:03:57;9.60;93.90
38941;DHT22;43236;47.208;7.518;2023-02-13T16:06:46;9.50;93.90
38941;DHT22;43236;47.208;7.518;2023-02-13T16:09:34;9.50;93.90
38941;DHT22;43236;47.208;7.518;2023-02-13T16:12:24;9.50;94.00
38941;DHT22;43236;47.208;7.518;2023-02-13T16:15:15;9.40;94.00
38941;DHT22;43236;47.208;7.518;2023-02-13T16:18:04;9.40;94.10
38941;DHT22;43236;47.208;7.518;2023-02-13T16:20:56;9.40;94.10
38941;DHT22;43236;47.208;7.518;2023-02-13T16:23:44;9.30;94.00
38941;DHT22;43236;47.208;7.518;2023-02-13T16:26:33;9.30;94.10
38941;DHT22;43236;47.208;7.518;2023-02-13T16:29:25;9.20;94.20
38941;DHT22;43236;47.208;7.518;2023-02-13T16:32:27;9.20;94.40
38941;DHT22;43236;47.208;7.518;2023-02-13T16:38:27;9.10;94.50
38941;DHT22;43236;47.208;7.518;2023-02-13T16:41:30;9.00;94.40
38941;DHT22;43236;47.208;7.518;2023-02-13T16:44:22;8.90;94.50
38941;DHT22;43236;47.208;7.518;2023-02-13T16:47:22;8.80;94.60
38941;DHT22;43236;47.208;7.518;2023-02-13T16:50:13;8.80;94.60
38941;DHT22;43236;47.208;7.518;2023-02-13T16:53:02;8.70;94.90
38941;DHT22;43236;47.208;7.518;2023-02-13T16:55:56;8.60;94.60
38941;DHT22;43236;47.208;7.518;2023-02-13T16:58:43;8.50;94.40
38941;DHT22;43236;47.208;7.518;2023-02-13T17:01:30;8.40;94.50
38941;DHT22;43236;47.208;7.518;2023-02-13T17:04:22;8.40;94.70
38941;DHT22;43236;47.208;7.518;2023-02-13T17:07:12;8.40;94.70
38941;DHT22;43236;47.208;7.518;2023-02-13T17:10:03;8.30;94.50
38941;DHT22;43236;47.208;7.518;2023-02-13T17:12:51;8.20;94.60
38941;DHT22;43236;47.208;7.518;2023-02-13T17:15:41;8.20;94.70
38941;DHT22;43236;47.208;7.518;2023-02-13T17:18:28;8.10;94.70
38941;DHT22;43236;47.208;7.518;2023-02-13T17:21:17;8.00;94.80
38941;DHT22;43236;47.208;7.518;2023-02-13T17:24:04;8.00;94.80
38941;DHT22;43236;47.208;7.518;2023-02-13T17:26:52;7.90;94.80
38941;DHT22;43236;47.208;7.518;2023-02-13T17:29:40;7.80;94.70
38941;DHT22;43236;47.208;7.518;2023-02-13T17:32:27;7.80;94.90
38941;DHT22;43236;47.208;7.518;2023-02-13T17:35:15;7.70;94.80
38941;DHT22;43236;47.208;7.518;2023-02-13T17:38:03;7.70;94.90
38941;DHT22;43236;47.208;7.518;2023-02-13T17:40:51;7.70;94.90
38941;DHT22;43236;47.208;7.518;2023-02-13T17:43:38;7.60;94.80
38941;DHT22;43236;47.208;7.518;2023-02-13T17:46:25;7.50;94.50
38941;DHT22;43236;47.208;7.518;2023-02-13T17:49:12;7.40;94.40
38941;DHT22;43236;47.208;7.518;2023-02-13T17:52:00;7.30;94.40
38941;DHT22;43236;47.208;7.518;2023-02-13T17:54:49;7.30;94.30
38941;DHT22;43236;47.208;7.518;2023-02-13T17:57:36;7.20;94.40
38941;DHT22;43236;47.208;7.518;2023-02-13T18:00:25;7.20;94.50
38941;DHT22;43236;47.208;7.518;2023-02-13T18:03:12;7.10;94.70
38941;DHT22;43236;47.208;7.518;2023-02-13T18:05:59;7.10;94.60
38941;DHT22;43236;47.208;7.518;2023-02-13T18:08:46;7.00;94.50
38941;DHT22;43236;47.208;7.518;2023-02-13T18:11:35;7.00;94.50
38941;DHT22;43236;47.208;7.518;2023-02-13T18:14:22;7.00;94.50
38941;DHT22;43236;47.208;7.518;2023-02-13T18:17:09;6.90;94.60
38941;DHT22;43236;47.208;7.518;2023-02-13T18:19:57;6.90;94.60
38941;DHT22;43236;47.208;7.518;2023-02-13T18:22:44;6.90;94.30
38941;DHT22;43236;47.208;7.518;2023-02-13T18:25:30;6.80;94.20
38941;DHT22;43236;47.208;7.518;2023-02-13T18:28:19;6.80;94.30